createdAt,value
2023-03-22T00:03:59.250Z,32.73
2023-03-22T00:07:59.341Z,32.73
2023-03-22T00:11:59.567Z,32.68
2023-03-22T00:15:59.902Z,32.69
2023-03-22T00:20:00.154Z,32.65
2023-03-22T00:24:00.212Z,32.64
2023-03-22T00:28:00.431Z,32.62
2023-03-22T00:32:00.744Z,32.55
2023-03-22T00:36:00.853Z,32.55
2023-03-22T00:40:01.026Z,32.61
2023-03-22T00:44:01.247Z,32.58
2023-03-22T00:48:01.557Z,32.58
2023-03-22T00:52:01.661Z,32.61
2023-03-22T00:56:01.941Z,32.48
2023-03-22T01:00:02.121Z,32.46
2023-03-22T01:04:02.132Z,32.48
2023-03-22T01:08:05.131Z,32.43
2023-03-22T01:12:02.228Z,32.42
2023-03-22T01:16:02.064Z,32.44
2023-03-22T01:20:01.966Z,32.39
2023-03-22T01:24:02.063Z,32.36
2023-03-22T01:28:02.142Z,32.34
2023-03-22T01:32:01.831Z,32.34
2023-03-22T01:36:01.847Z,32.31
2023-03-22T01:40:01.773Z,32.34
2023-03-22T01:44:02.587Z,32.27
2023-03-22T01:48:01.904Z,32.24
2023-03-22T01:52:01.800Z,32.28
2023-03-22T01:56:01.662Z,32.28
2023-03-22T02:00:02.115Z,32.31
2023-03-22T02:04:01.700Z,32.15
2023-03-22T02:08:01.647Z,32.18
2023-03-22T02:12:01.641Z,32.11
2023-03-22T02:16:01.704Z,32.14
2023-03-22T02:20:01.467Z,32.10
2023-03-22T02:24:01.431Z,32.15
2023-03-22T02:28:01.445Z,32.15
2023-03-22T02:32:01.412Z,32.18
2023-03-22T02:36:01.334Z,32.14
2023-03-22T02:40:01.614Z,32.12
2023-03-22T02:44:01.587Z,32.10
2023-03-22T02:48:01.202Z,32.12
2023-03-22T02:52:01.167Z,32.06
2023-03-22T02:56:01.139Z,32.10
2023-03-22T03:00:01.320Z,32.05
2023-03-22T03:04:01.252Z,32.08
2023-03-22T03:08:01.171Z,31.98
2023-03-22T03:12:01.125Z,32.05
2023-03-22T03:16:01.107Z,32.02
2023-03-22T03:20:01.115Z,31.98
2023-03-22T03:24:01.060Z,31.98
2023-03-22T03:28:01.019Z,31.95
2023-03-22T03:32:01.038Z,32.00
2023-03-22T03:36:00.959Z,31.98
2023-03-22T03:40:01.088Z,31.99
2023-03-22T03:44:01.073Z,31.97
2023-03-22T03:48:01.099Z,31.91
2023-03-22T03:52:01.009Z,31.91
2023-03-22T03:56:01.030Z,31.91
2023-03-22T04:00:01.006Z,31.95
2023-03-22T04:04:01.049Z,31.94
2023-03-22T04:08:00.843Z,31.88
2023-03-22T04:12:00.813Z,31.86
2023-03-22T04:16:00.829Z,31.86
2023-03-22T04:20:00.872Z,31.88
2023-03-22T04:24:00.858Z,31.85
2023-03-22T04:28:01.114Z,31.85
2023-03-22T04:32:00.793Z,31.88
2023-03-22T04:36:02.919Z,31.85
2023-03-22T04:40:00.692Z,31.80
2023-03-22T04:44:00.632Z,31.86
2023-03-22T04:48:01.311Z,31.76
2023-03-22T04:52:00.536Z,31.85
2023-03-22T04:56:00.712Z,31.79
2023-03-22T05:00:15.176Z,31.81
2023-03-22T05:04:00.560Z,31.78
2023-03-22T05:08:00.433Z,31.77
2023-03-22T05:12:00.390Z,31.78
2023-03-22T05:16:00.456Z,31.71
2023-03-22T05:20:00.325Z,31.72
2023-03-22T05:24:00.693Z,31.75
2023-03-22T05:28:00.702Z,31.65
2023-03-22T05:32:00.692Z,31.77
2023-03-22T05:36:00.356Z,31.69
2023-03-22T05:40:00.695Z,31.54
2023-03-22T05:44:00.411Z,31.10
2023-03-22T05:48:00.637Z,30.64
2023-03-22T05:52:00.731Z,30.09
2023-03-22T05:56:00.912Z,29.65
2023-03-22T06:00:01.072Z,29.25
2023-03-22T06:04:01.286Z,29.03
2023-03-22T06:08:01.193Z,28.84
2023-03-22T06:12:01.124Z,28.80
2023-03-22T06:16:01.287Z,28.66
2023-03-22T06:20:01.240Z,28.56
2023-03-22T06:24:01.168Z,28.32
2023-03-22T06:28:01.206Z,28.06
2023-03-22T06:32:09.978Z,28.09
2023-03-22T06:36:02.648Z,24.78
2023-03-22T06:40:01.211Z,22.76
2023-03-22T06:44:01.105Z,22.02
2023-03-22T06:48:01.148Z,22.23
2023-03-22T06:52:03.178Z,25.22
2023-03-22T06:56:04.638Z,26.73
2023-03-22T07:00:06.134Z,27.21
2023-03-22T07:04:01.383Z,28.70
2023-03-22T07:08:01.010Z,29.75
2023-03-22T07:12:10.739Z,30.61
2023-03-22T07:16:01.007Z,30.90
2023-03-22T07:20:00.934Z,31.03
2023-03-22T07:24:01.089Z,31.54
2023-03-22T07:28:00.955Z,31.87
2023-03-22T07:32:01.211Z,32.77
2023-03-22T07:36:01.024Z,32.73
2023-03-22T07:40:01.367Z,33.28
2023-03-22T07:44:15.250Z,33.01
2023-03-22T07:48:02.300Z,32.69
2023-03-22T07:52:00.853Z,32.42
2023-03-22T07:56:00.824Z,32.44
2023-03-22T08:00:01.052Z,32.08
2023-03-22T08:04:00.770Z,33.21
2023-03-22T08:08:00.829Z,32.21
2023-03-22T08:12:00.681Z,32.01
2023-03-22T08:16:00.745Z,31.77
2023-03-22T08:20:00.619Z,30.75
2023-03-22T08:24:00.605Z,30.98
2023-03-22T08:28:00.654Z,30.99
2023-03-22T08:32:00.884Z,31.14
2023-03-22T08:36:01.085Z,30.48
2023-03-22T08:40:01.008Z,29.27
2023-03-22T08:44:00.887Z,28.48
2023-03-22T08:48:00.908Z,28.49
2023-03-22T08:52:00.743Z,28.64
2023-03-22T08:56:00.776Z,28.36
2023-03-22T09:00:00.687Z,27.99
2023-03-22T09:04:00.772Z,27.71
2023-03-22T09:08:06.145Z,26.90
2023-03-22T09:12:02.641Z,27.36
2023-03-22T09:16:00.608Z,26.77
2023-03-22T09:20:11.878Z,26.92
2023-03-22T09:24:01.530Z,26.96
2023-03-22T09:32:30.403Z,26.90
2023-03-22T09:36:19.146Z,26.54
2023-03-22T09:40:19.125Z,26.60
2023-03-22T09:44:22.047Z,26.49
2023-03-22T09:48:19.148Z,27.22
2023-03-22T09:52:18.981Z,27.17
2023-03-22T09:56:18.887Z,27.39
2023-03-22T10:00:19.036Z,28.66
2023-03-22T10:04:18.946Z,30.31
2023-03-22T10:08:18.868Z,30.21
2023-03-22T10:12:18.828Z,30.45
2023-03-22T10:16:18.750Z,28.95
2023-03-22T10:20:18.688Z,30.22
2023-03-22T10:24:19.720Z,30.97
2023-03-22T10:28:18.691Z,31.84
2023-03-22T10:32:18.681Z,32.42
2023-03-22T10:36:18.608Z,32.82
2023-03-22T10:40:19.334Z,29.31
2023-03-22T10:44:18.550Z,26.83
2023-03-22T10:48:19.506Z,27.26
2023-03-22T10:52:18.433Z,26.23
2023-03-22T10:56:18.381Z,25.50
2023-03-22T11:00:18.457Z,25.54
2023-03-22T11:04:18.409Z,24.65
2023-03-22T11:08:18.608Z,24.76
2023-03-22T11:12:18.803Z,24.39
2023-03-22T11:16:19.838Z,24.69
2023-03-22T11:20:18.758Z,24.32
2023-03-22T11:24:18.700Z,23.86
2023-03-22T11:28:18.923Z,24.52
2023-03-22T11:32:19.893Z,24.46
2023-03-22T11:36:18.700Z,24.46
2023-03-22T11:40:18.652Z,24.30
2023-03-22T11:44:18.553Z,23.72
2023-03-22T11:48:19.500Z,23.95
2023-03-22T11:52:18.515Z,23.45
2023-03-22T11:56:19.543Z,23.30
2023-03-22T12:00:18.923Z,23.63
2023-03-22T12:04:18.520Z,22.93
2023-03-22T12:08:18.446Z,23.21
2023-03-22T12:12:18.290Z,23.37
2023-03-22T12:16:18.534Z,22.26
2023-03-22T12:20:18.319Z,24.47
2023-03-22T12:24:18.366Z,24.78
2023-03-22T12:28:18.179Z,24.86
2023-03-22T12:32:18.125Z,24.88
2023-03-22T12:36:18.367Z,24.99
2023-03-22T12:40:18.279Z,25.27
2023-03-22T12:44:18.260Z,25.31
2023-03-22T12:48:18.342Z,25.42
2023-03-22T12:52:18.499Z,25.56
2023-03-22T12:56:18.894Z,25.67
2023-03-22T13:00:18.107Z,25.81
2023-03-22T13:04:18.279Z,25.91
2023-03-22T13:08:18.144Z,26.01
2023-03-22T13:12:18.821Z,26.08
2023-03-22T13:16:18.183Z,26.25
2023-03-22T13:20:18.216Z,26.17
2023-03-22T13:24:18.944Z,26.34
2023-03-22T13:28:18.436Z,26.47
2023-03-22T13:32:22.316Z,26.50
2023-03-22T13:36:18.930Z,26.56
2023-03-22T13:40:18.071Z,26.63
2023-03-22T13:44:17.910Z,26.73
2023-03-22T13:48:17.997Z,26.76
2023-03-22T13:52:18.030Z,26.80
2023-03-22T13:56:18.001Z,26.87
2023-03-22T14:00:20.269Z,26.90
2023-03-22T14:04:18.932Z,26.97
2023-03-22T14:08:17.881Z,27.00
2023-03-22T14:12:17.928Z,26.97
2023-03-22T14:16:17.991Z,27.02
2023-03-22T14:20:17.834Z,27.08
2023-03-22T14:49:20.153Z,27.29
2023-03-22T14:53:20.142Z,27.33
2023-03-22T14:57:28.314Z,27.34
2023-03-22T15:01:21.118Z,27.39
2023-03-22T15:05:20.024Z,27.34
2023-03-22T15:09:19.964Z,27.38
2023-03-22T15:13:19.958Z,27.43
2023-03-22T15:17:19.909Z,27.47
2023-03-22T15:21:19.912Z,27.48
2023-03-22T15:25:19.843Z,27.51
2023-03-22T15:29:19.827Z,27.62
2023-03-22T15:33:19.800Z,27.58
2023-03-22T15:37:24.777Z,27.90
2023-03-22T15:41:20.754Z,28.01
2023-03-22T15:45:19.760Z,29.54
2023-03-22T15:49:19.718Z,30.41
2023-03-22T15:53:20.364Z,30.54
2023-03-22T15:57:19.761Z,30.97
2023-03-22T16:01:19.639Z,31.10
2023-03-22T16:05:19.538Z,31.03
2023-03-22T16:09:19.532Z,30.90
2023-03-22T16:13:19.477Z,31.00
2023-03-22T16:17:19.485Z,30.84
2023-03-22T16:21:20.409Z,30.78
2023-03-22T16:25:19.475Z,30.70
2023-03-22T16:29:19.342Z,30.68
2023-03-22T16:33:19.315Z,30.53
2023-03-22T16:37:19.265Z,30.51
2023-03-22T16:41:19.242Z,30.37
2023-03-22T16:45:19.232Z,30.48
2023-03-22T16:49:19.290Z,30.53
2023-03-22T16:53:19.330Z,30.47
2023-03-22T16:57:19.337Z,30.46
2023-03-22T17:01:19.342Z,30.35
2023-03-22T17:05:19.588Z,30.37
2023-03-22T17:09:19.373Z,30.30
2023-03-22T17:13:19.346Z,30.31
2023-03-22T17:17:20.442Z,30.31
2023-03-22T17:21:19.348Z,30.33
2023-03-22T17:25:20.034Z,30.35
2023-03-22T17:29:19.336Z,30.25
2023-03-22T17:33:19.356Z,30.22
2023-03-22T17:37:19.294Z,30.27
2023-03-22T17:41:19.252Z,30.24
2023-03-22T17:45:19.417Z,30.18
2023-03-22T17:49:19.364Z,30.14
2023-03-22T17:53:46.709Z,30.11
2023-03-22T17:57:44.752Z,30.07
2023-03-22T18:01:20.318Z,30.02
2023-03-22T18:05:24.799Z,30.07
2023-03-22T18:09:20.143Z,29.98
2023-03-22T18:13:19.035Z,29.93
2023-03-22T18:17:19.100Z,29.91
2023-03-22T18:21:19.217Z,29.88
2023-03-22T18:25:18.948Z,29.92
2023-03-22T18:29:18.914Z,29.91
2023-03-22T18:33:19.466Z,29.88
2023-03-22T18:37:19.003Z,29.85
2023-03-22T18:45:21.081Z,29.80
2023-03-22T18:49:18.877Z,29.80
2023-03-22T18:53:18.903Z,29.79
2023-03-22T18:57:25.846Z,29.88
2023-03-22T19:01:19.791Z,29.83
2023-03-22T19:05:18.728Z,29.79
2023-03-22T19:09:18.917Z,29.77
2023-03-22T19:13:18.650Z,29.69
2023-03-22T19:17:18.586Z,29.66
2023-03-22T19:25:18.540Z,29.62
2023-03-22T19:29:18.593Z,29.58
2023-03-22T19:33:34.696Z,29.59
2023-03-22T19:37:19.563Z,29.52
2023-03-22T19:41:45.049Z,29.46
2023-03-22T19:45:19.516Z,29.45
2023-03-22T19:49:18.461Z,29.39
2023-03-22T19:53:54.222Z,29.37
2023-03-22T19:57:19.403Z,29.32
2023-03-22T20:01:18.351Z,29.24
2023-03-22T20:05:18.482Z,29.21
2023-03-22T20:09:18.314Z,29.15
2023-03-22T20:13:18.255Z,29.08
2023-03-22T20:17:25.863Z,28.97
2023-03-22T20:21:19.191Z,29.01
2023-03-22T20:25:18.109Z,28.96
2023-03-22T20:29:18.100Z,28.93
2023-03-22T20:33:18.108Z,29.04
2023-03-22T20:37:18.479Z,28.99
2023-03-22T20:41:18.258Z,29.11
2023-03-22T20:45:18.320Z,29.11
2023-03-22T20:49:18.392Z,29.12
2023-03-22T20:53:18.481Z,29.18
2023-03-22T20:57:19.528Z,29.18
2023-03-22T21:01:18.634Z,29.11
2023-03-22T21:05:18.746Z,29.11
2023-03-22T21:09:18.825Z,29.15
2023-03-22T21:13:18.902Z,29.13
2023-03-22T21:17:18.979Z,29.13
2023-03-22T21:21:18.986Z,29.20
2023-03-22T21:25:19.063Z,29.17
2023-03-22T21:29:19.154Z,29.25
2023-03-22T21:33:19.277Z,29.15
2023-03-22T21:37:19.362Z,29.19
2023-03-22T21:41:19.634Z,29.19
2023-03-22T21:45:19.572Z,29.23
2023-03-22T21:49:20.025Z,29.23
2023-03-22T21:53:19.706Z,29.19
2023-03-22T21:57:19.865Z,29.17
2023-03-22T22:01:19.987Z,29.22
2023-03-22T22:05:20.011Z,29.26
2023-03-22T22:09:20.148Z,29.24
2023-03-22T22:13:20.274Z,29.30
2023-03-22T22:17:20.297Z,29.25
2023-03-22T22:21:20.578Z,29.27
2023-03-22T22:25:20.485Z,29.26
2023-03-22T22:29:20.670Z,29.28
2023-03-22T22:33:20.706Z,29.33
2023-03-22T22:37:20.918Z,29.28
2023-03-22T22:41:20.997Z,29.28
2023-03-22T22:45:22.121Z,29.37
2023-03-22T22:49:21.142Z,29.39
2023-03-22T22:53:21.312Z,29.37
2023-03-22T22:57:21.489Z,29.39
2023-03-22T23:01:21.533Z,29.40
2023-03-22T23:05:21.656Z,29.45
2023-03-22T23:09:21.781Z,29.39
2023-03-22T23:13:21.910Z,29.45
2023-03-22T23:17:22.070Z,29.44
2023-03-22T23:21:22.145Z,29.45
2023-03-22T23:25:22.312Z,29.44
2023-03-22T23:29:22.426Z,29.48
2023-03-22T23:33:22.561Z,29.46
2023-03-22T23:37:22.741Z,29.44
2023-03-22T23:41:22.857Z,29.47
2023-03-22T23:45:22.992Z,29.53
2023-03-22T23:49:23.212Z,29.53
2023-03-22T23:53:23.284Z,29.53
2023-03-22T23:57:23.416Z,29.54
